SBEGSBBV

Guest
Details From SBEG - Eduardo Gomes
To SBBV - Boa Vista Intl
Flight Number -
Tags decoded
Created
Modified
Stats Distance 356 nm / 658 km
Max Altitude 0 ft / 0 m
Waypoints 3
Social Downloads 0
Likes 0
Share VATSIM

Download

Looking for another format? Having issues loading an existing format? Contact us
Advertisement - Login to hide

Notes

Requested: SBEG KIGUX UM402 ANBIX SBBV Unmatched points: KIGUX UM402

Route

SBEG ANBIX SBBV

ID Type Via Altitude Latitude Longitude Leg Dist Tot Dist Heading (true) Name
O SBEG APT - 0 ft / 0 m -3.03861˚ -60.04972˚ - 0 nm - Eduardo Gomes
ANBIX FIX - 0 ft / 0 m 2.18517˚ -60.62317˚ 315 nm 315 nm 354° / 354° -
O SBBV APT - 0 ft / 0 m 2.84631˚ -60.69007˚ 39 nm 355 nm 354° / 354° Boa Vista Intl

Altitude Profile

Advertisement - Login to hide

Weather


0- 5 10 15 20 25 30 35+ Temperature / ° C

Clouds and Precipitation
Forecast for 2018-05-26 06:00 UTC. Updated 5 hours ago

Ground ~20,000 ft ~40,000 ft Winds

SBEG

Details ICAO SBEG (MAO)
Name Eduardo Gomes
Region Brazil
Timezone America/Manaus (UTC-4.0)
Stats Elevation 264 ft / 80 m (AMSL)
Location -3.038611° -60.049723°
Runways 1
Magnetic Variation 15.814° W

METAR

SBEG 261021Z 12014G24KT 2500 +RA BKN012 FEW025TCU BKN070 23/22 Q1014

Decode

TAF

TAF SBEG 260400Z 2606/2706 00000KT CAVOK TN21/2607Z TX30/2618Z BECMG 2611/2613 06005KT SCT015 BECMG 2615/2617 09008KT SCT020 FEW025TCU PROB30 2618/2620 TS SCT020 FEW025CB BECMG 2622/2624 00000KT FEW015 RMK PEH

Decode

Departure Runways

ID Width Length Bearing (true) Bearing (mag) Surface Threshold Offset Overrun Length
10 148 ft / 45 m 8,867 ft / 2,703 m 90.13° 105.94° Asphalt 0 ft / 0 m 215 ft / 66 m
28 148 ft / 45 m 8,867 ft / 2,703 m 270.13° 285.94° Asphalt 0 ft / 0 m 250 ft / 76 m

SBBV

Details ICAO SBBV (BVB)
Name Boa Vista Intl
Region Brazil
Timezone America/Boa_Vista (UTC-4.0)
Stats Elevation 275 ft / 84 m (AMSL)
Location 2.846311° -60.690068°
Runways 1
Magnetic Variation 15.459° W

METAR

SBBV 261000Z 36003KT 9999 SCT006 OVC070 25/24 Q1013

Decode

TAF

TAF SBBV 260400Z 2606/2706 12005KT 9999 SCT020 FEW030TCU TN25/2609Z TX31/2618Z BECMG 2610/2612 06010KT FEW020 BECMG 2615/2617 09008KT BKN035 FEW040TCU PROB30 2619/2621 TS BKN025 FEW030CB BECMG 2622/2624 12005KT RMK PEH

Decode

Destination Runways

ID Width Length Bearing (true) Bearing (mag) Surface Threshold Offset Overrun Length
08 148 ft / 45 m 8,871 ft / 2,704 m 62.88° 78.34° Asphalt 300 ft / 91 m 0 ft / 0 m
26 148 ft / 45 m 8,871 ft / 2,704 m 242.88° 258.34° Asphalt 300 ft / 91 m 0 ft / 0 m

Approach Navaids

Runway Type Ident Frequency Range Bearing (true) Bearing (mag) Slope Elevation
08 Localiser IBV 109.30 MHz 18 nm / 33 km 62.88° 78.33° - 274 ft / 84 m (AMSL)
08 Glidescope IBV 109.30 MHz 10 nm / 19 km 62.88° 78.33° 3.00° 274 ft / 84 m (AMSL)
08 DME IBV 109.30 MHz 18 nm / 33 km - - - 274 ft / 84 m (AMSL)

Popular Alternatives